sensor_id;sensor_type;location;lat;lon;timestamp;temperature;humidity
30069;DHT22;16894;49.456;10.644;2023-03-19T00:02:13;6.80;99.90
30069;DHT22;16894;49.456;10.644;2023-03-19T00:04:38;6.70;99.90
30069;DHT22;16894;49.456;10.644;2023-03-19T00:07:04;6.70;99.90
30069;DHT22;16894;49.456;10.644;2023-03-19T00:09:30;6.70;99.90
30069;DHT22;16894;49.456;10.644;2023-03-19T00:11:56;6.70;99.90
30069;DHT22;16894;49.456;10.644;2023-03-19T00:14:22;6.70;99.90
30069;DHT22;16894;49.456;10.644;2023-03-19T00:16:47;6.70;99.90
30069;DHT22;16894;49.456;10.644;2023-03-19T00:19:13;6.70;99.90
30069;DHT22;16894;49.456;10.644;2023-03-19T00:21:39;6.60;99.90
30069;DHT22;16894;49.456;10.644;2023-03-19T00:24:05;6.60;99.90
30069;DHT22;16894;49.456;10.644;2023-03-19T00:26:32;6.60;99.90
30069;DHT22;16894;49.456;10.644;2023-03-19T00:28:58;6.50;99.90
30069;DHT22;16894;49.456;10.644;2023-03-19T00:31:25;6.50;99.90
30069;DHT22;16894;49.456;10.644;2023-03-19T00:33:51;6.40;99.90
30069;DHT22;16894;49.456;10.644;2023-03-19T00:36:18;6.40;99.90
30069;DHT22;16894;49.456;10.644;2023-03-19T00:38:44;6.40;99.90
30069;DHT22;16894;49.456;10.644;2023-03-19T00:41:11;6.40;99.90
30069;DHT22;16894;49.456;10.644;2023-03-19T00:43:37;6.30;99.90
30069;DHT22;16894;49.456;10.644;2023-03-19T00:46:03;6.30;99.90
30069;DHT22;16894;49.456;10.644;2023-03-19T00:48:29;6.30;99.90
30069;DHT22;16894;49.456;10.644;2023-03-19T00:50:55;6.20;99.90
30069;DHT22;16894;49.456;10.644;2023-03-19T00:53:21;6.30;99.90
30069;DHT22;16894;49.456;10.644;2023-03-19T00:55:46;6.20;99.90
30069;DHT22;16894;49.456;10.644;2023-03-19T00:58:12;6.30;99.90
30069;DHT22;16894;49.456;10.644;2023-03-19T01:00:38;6.20;99.90
30069;DHT22;16894;49.456;10.644;2023-03-19T01:03:05;6.20;99.90
30069;DHT22;16894;49.456;10.644;2023-03-19T01:05:33;6.30;99.90
30069;DHT22;16894;49.456;10.644;2023-03-19T01:07:59;6.30;99.90
30069;DHT22;16894;49.456;10.644;2023-03-19T01:10:24;6.20;99.90
30069;DHT22;16894;49.456;10.644;2023-03-19T01:12:50;6.10;99.90
30069;DHT22;16894;49.456;10.644;2023-03-19T01:15:16;6.10;99.90
30069;DHT22;16894;49.456;10.644;2023-03-19T01:17:42;6.00;99.90
30069;DHT22;16894;49.456;10.644;2023-03-19T01:20:09;6.10;99.90
30069;DHT22;16894;49.456;10.644;2023-03-19T01:22:39;6.10;99.90
30069;DHT22;16894;49.456;10.644;2023-03-19T01:25:06;6.10;99.90
30069;DHT22;16894;49.456;10.644;2023-03-19T01:27:32;6.00;99.90
30069;DHT22;16894;49.456;10.644;2023-03-19T01:29:58;6.00;99.90
30069;DHT22;16894;49.456;10.644;2023-03-19T01:32:23;5.90;99.90
30069;DHT22;16894;49.456;10.644;2023-03-19T01:34:49;5.90;99.90
30069;DHT22;16894;49.456;10.644;2023-03-19T01:37:15;5.90;99.90
30069;DHT22;16894;49.456;10.644;2023-03-19T01:39:41;5.80;99.90
30069;DHT22;16894;49.456;10.644;2023-03-19T01:42:06;5.80;99.90
30069;DHT22;16894;49.456;10.644;2023-03-19T01:44:35;5.90;99.90
30069;DHT22;16894;49.456;10.644;2023-03-19T01:47:04;5.90;99.90
30069;DHT22;16894;49.456;10.644;2023-03-19T01:49:32;5.90;99.90
30069;DHT22;16894;49.456;10.644;2023-03-19T01:52:01;5.90;99.90
30069;DHT22;16894;49.456;10.644;2023-03-19T01:54:28;5.90;99.90
30069;DHT22;16894;49.456;10.644;2023-03-19T01:56:59;5.90;99.90
30069;DHT22;16894;49.456;10.644;2023-03-19T01:59:33;5.90;99.90
30069;DHT22;16894;49.456;10.644;2023-03-19T02:02:22;5.80;99.90
30069;DHT22;16894;49.456;10.644;2023-03-19T02:04:52;5.60;99.90
30069;DHT22;16894;49.456;10.644;2023-03-19T02:07:20;5.40;99.90
30069;DHT22;16894;49.456;10.644;2023-03-19T02:09:46;5.40;99.90
30069;DHT22;16894;49.456;10.644;2023-03-19T02:12:12;5.40;99.90
30069;DHT22;16894;49.456;10.644;2023-03-19T02:14:39;5.40;99.90
30069;DHT22;16894;49.456;10.644;2023-03-19T02:17:05;5.40;99.90
30069;DHT22;16894;49.456;10.644;2023-03-19T02:19:56;5.50;99.90
30069;DHT22;16894;49.456;10.644;2023-03-19T02:22:26;5.40;99.90
30069;DHT22;16894;49.456;10.644;2023-03-19T02:25:13;5.50;99.90
30069;DHT22;16894;49.456;10.644;2023-03-19T02:27:39;5.60;99.90
30069;DHT22;16894;49.456;10.644;2023-03-19T02:32:45;5.60;99.90
30069;DHT22;16894;49.456;10.644;2023-03-19T02:35:11;5.60;99.90
30069;DHT22;16894;49.456;10.644;2023-03-19T02:37:37;5.60;99.90
30069;DHT22;16894;49.456;10.644;2023-03-19T02:40:06;5.60;99.90
30069;DHT22;16894;49.456;10.644;2023-03-19T02:42:33;5.50;99.90
30069;DHT22;16894;49.456;10.644;2023-03-19T02:44:59;5.50;99.90
30069;DHT22;16894;49.456;10.644;2023-03-19T02:47:26;5.50;99.90
30069;DHT22;16894;49.456;10.644;2023-03-19T02:49:52;5.50;99.90
30069;DHT22;16894;49.456;10.644;2023-03-19T02:52:18;5.50;99.90
30069;DHT22;16894;49.456;10.644;2023-03-19T02:54:43;5.50;99.90
30069;DHT22;16894;49.456;10.644;2023-03-19T02:57:09;5.50;99.90
30069;DHT22;16894;49.456;10.644;2023-03-19T02:59:35;5.50;99.90
30069;DHT22;16894;49.456;10.644;2023-03-19T03:02:00;5.50;99.90
30069;DHT22;16894;49.456;10.644;2023-03-19T03:04:26;5.50;99.90
30069;DHT22;16894;49.456;10.644;2023-03-19T03:06:52;5.50;99.90
30069;DHT22;16894;49.456;10.644;2023-03-19T03:09:17;5.60;99.90
30069;DHT22;16894;49.456;10.644;2023-03-19T03:11:43;5.60;99.90
30069;DHT22;16894;49.456;10.644;2023-03-19T03:14:09;5.60;99.90
30069;DHT22;16894;49.456;10.644;2023-03-19T03:16:35;5.50;99.90
30069;DHT22;16894;49.456;10.644;2023-03-19T03:19:02;5.50;99.90
30069;DHT22;16894;49.456;10.644;2023-03-19T03:21:28;5.50;99.90
30069;DHT22;16894;49.456;10.644;2023-03-19T03:23:54;5.50;99.90
30069;DHT22;16894;49.456;10.644;2023-03-19T03:26:19;5.50;99.90
30069;DHT22;16894;49.456;10.644;2023-03-19T03:28:45;5.50;99.90
30069;DHT22;16894;49.456;10.644;2023-03-19T03:31:12;5.50;99.90
30069;DHT22;16894;49.456;10.644;2023-03-19T03:33:38;5.50;99.90
30069;DHT22;16894;49.456;10.644;2023-03-19T03:36:04;5.50;99.90
30069;DHT22;16894;49.456;10.644;2023-03-19T03:38:29;5.50;99.90
30069;DHT22;16894;49.456;10.644;2023-03-19T03:40:57;5.60;99.90
30069;DHT22;16894;49.456;10.644;2023-03-19T03:43:23;5.60;99.90
30069;DHT22;16894;49.456;10.644;2023-03-19T03:45:50;5.70;99.90
30069;DHT22;16894;49.456;10.644;2023-03-19T03:48:16;5.70;99.90
30069;DHT22;16894;49.456;10.644;2023-03-19T03:50:42;5.70;99.90
30069;DHT22;16894;49.456;10.644;2023-03-19T03:53:08;5.80;99.90
30069;DHT22;16894;49.456;10.644;2023-03-19T03:55:34;5.80;99.90
30069;DHT22;16894;49.456;10.644;2023-03-19T03:58:01;5.80;99.90
30069;DHT22;16894;49.456;10.644;2023-03-19T04:00:27;5.80;99.90
30069;DHT22;16894;49.456;10.644;2023-03-19T04:02:53;5.80;99.90
30069;DHT22;16894;49.456;10.644;2023-03-19T04:05:19;5.90;99.90
30069;DHT22;16894;49.456;10.644;2023-03-19T04:07:45;5.90;99.90
30069;DHT22;16894;49.456;10.644;2023-03-19T04:10:11;6.00;99.90
30069;DHT22;16894;49.456;10.644;2023-03-19T04:12:38;6.00;99.90
30069;DHT22;16894;49.456;10.644;2023-03-19T04:15:06;6.00;99.90
30069;DHT22;16894;49.456;10.644;2023-03-19T04:17:32;6.10;99.90
30069;DHT22;16894;49.456;10.644;2023-03-19T04:19:58;6.20;99.90
30069;DHT22;16894;49.456;10.644;2023-03-19T04:22:23;6.10;99.90
30069;DHT22;16894;49.456;10.644;2023-03-19T04:24:49;6.10;99.90
30069;DHT22;16894;49.456;10.644;2023-03-19T04:27:15;6.10;99.90
30069;DHT22;16894;49.456;10.644;2023-03-19T04:29:40;6.10;99.90
30069;DHT22;16894;49.456;10.644;2023-03-19T04:32:06;6.10;99.90
30069;DHT22;16894;49.456;10.644;2023-03-19T04:34:32;6.10;99.90
30069;DHT22;16894;49.456;10.644;2023-03-19T04:36:58;6.10;99.90
30069;DHT22;16894;49.456;10.644;2023-03-19T04:39:24;6.10;99.90
30069;DHT22;16894;49.456;10.644;2023-03-19T04:41:50;6.10;99.90
30069;DHT22;16894;49.456;10.644;2023-03-19T04:44:16;6.10;99.90
30069;DHT22;16894;49.456;10.644;2023-03-19T04:46:42;6.20;99.90
30069;DHT22;16894;49.456;10.644;2023-03-19T04:49:09;6.30;99.90
30069;DHT22;16894;49.456;10.644;2023-03-19T04:51:35;6.30;99.90
30069;DHT22;16894;49.456;10.644;2023-03-19T04:54:01;6.30;99.90
30069;DHT22;16894;49.456;10.644;2023-03-19T04:56:26;6.30;99.90
30069;DHT22;16894;49.456;10.644;2023-03-19T04:58:52;6.40;99.90
30069;DHT22;16894;49.456;10.644;2023-03-19T05:01:18;6.40;99.90
30069;DHT22;16894;49.456;10.644;2023-03-19T05:03:44;6.30;99.90
30069;DHT22;16894;49.456;10.644;2023-03-19T05:06:10;6.40;99.90
30069;DHT22;16894;49.456;10.644;2023-03-19T05:08:36;6.40;99.90
30069;DHT22;16894;49.456;10.644;2023-03-19T05:11:01;6.50;99.90
30069;DHT22;16894;49.456;10.644;2023-03-19T05:13:27;6.50;99.90
30069;DHT22;16894;49.456;10.644;2023-03-19T05:15:53;6.60;99.90
30069;DHT22;16894;49.456;10.644;2023-03-19T05:18:19;6.60;99.90
30069;DHT22;16894;49.456;10.644;2023-03-19T05:20:46;6.70;99.90
30069;DHT22;16894;49.456;10.644;2023-03-19T05:23:11;6.90;99.90
30069;DHT22;16894;49.456;10.644;2023-03-19T05:25:38;7.00;99.90
30069;DHT22;16894;49.456;10.644;2023-03-19T05:28:05;7.10;99.90
30069;DHT22;16894;49.456;10.644;2023-03-19T05:30:32;7.30;99.90
30069;DHT22;16894;49.456;10.644;2023-03-19T05:32:58;7.50;99.90
30069;DHT22;16894;49.456;10.644;2023-03-19T05:35:26;7.60;99.90
30069;DHT22;16894;49.456;10.644;2023-03-19T05:37:52;7.70;99.90
30069;DHT22;16894;49.456;10.644;2023-03-19T05:40:18;7.80;99.90
30069;DHT22;16894;49.456;10.644;2023-03-19T05:42:44;8.00;99.90
30069;DHT22;16894;49.456;10.644;2023-03-19T05:45:10;8.10;99.90
30069;DHT22;16894;49.456;10.644;2023-03-19T05:47:36;8.10;99.90
30069;DHT22;16894;49.456;10.644;2023-03-19T05:50:02;8.10;99.90
30069;DHT22;16894;49.456;10.644;2023-03-19T05:52:27;8.20;99.90
30069;DHT22;16894;49.456;10.644;2023-03-19T05:54:53;8.20;99.90
30069;DHT22;16894;49.456;10.644;2023-03-19T05:57:18;8.20;99.90
30069;DHT22;16894;49.456;10.644;2023-03-19T05:59:44;8.30;99.90
30069;DHT22;16894;49.456;10.644;2023-03-19T06:02:10;8.40;99.90
30069;DHT22;16894;49.456;10.644;2023-03-19T06:04:36;8.40;99.90
30069;DHT22;16894;49.456;10.644;2023-03-19T06:07:01;8.50;99.90
30069;DHT22;16894;49.456;10.644;2023-03-19T06:09:28;8.50;99.90
30069;DHT22;16894;49.456;10.644;2023-03-19T06:11:54;8.50;99.90
30069;DHT22;16894;49.456;10.644;2023-03-19T06:14:20;8.50;99.90
30069;DHT22;16894;49.456;10.644;2023-03-19T06:16:45;8.50;99.90
30069;DHT22;16894;49.456;10.644;2023-03-19T06:19:11;8.60;99.90
30069;DHT22;16894;49.456;10.644;2023-03-19T06:21:36;8.50;99.90
30069;DHT22;16894;49.456;10.644;2023-03-19T06:24:02;8.50;99.90
30069;DHT22;16894;49.456;10.644;2023-03-19T06:26:28;8.60;99.90
30069;DHT22;16894;49.456;10.644;2023-03-19T06:28:53;8.60;99.90
30069;DHT22;16894;49.456;10.644;2023-03-19T06:31:19;8.60;99.90
30069;DHT22;16894;49.456;10.644;2023-03-19T06:33:45;8.60;99.90
30069;DHT22;16894;49.456;10.644;2023-03-19T06:36:11;8.60;99.90
30069;DHT22;16894;49.456;10.644;2023-03-19T06:38:37;8.70;99.90
30069;DHT22;16894;49.456;10.644;2023-03-19T06:41:03;8.80;99.90
30069;DHT22;16894;49.456;10.644;2023-03-19T06:43:28;8.80;99.90
30069;DHT22;16894;49.456;10.644;2023-03-19T06:45:54;8.80;99.90
30069;DHT22;16894;49.456;10.644;2023-03-19T06:48:20;8.70;99.90
30069;DHT22;16894;49.456;10.644;2023-03-19T06:50:46;8.80;99.90
30069;DHT22;16894;49.456;10.644;2023-03-19T06:53:12;8.80;99.90
30069;DHT22;16894;49.456;10.644;2023-03-19T06:55:38;8.80;99.90
30069;DHT22;16894;49.456;10.644;2023-03-19T06:58:04;8.80;99.90
30069;DHT22;16894;49.456;10.644;2023-03-19T07:00:30;8.80;99.90
30069;DHT22;16894;49.456;10.644;2023-03-19T07:02:55;8.70;99.90
30069;DHT22;16894;49.456;10.644;2023-03-19T07:05:21;8.60;99.90
30069;DHT22;16894;49.456;10.644;2023-03-19T07:07:47;8.60;99.90
30069;DHT22;16894;49.456;10.644;2023-03-19T07:10:12;8.70;99.90
30069;DHT22;16894;49.456;10.644;2023-03-19T07:12:38;8.60;99.90
30069;DHT22;16894;49.456;10.644;2023-03-19T07:15:04;8.50;99.90
30069;DHT22;16894;49.456;10.644;2023-03-19T07:17:30;8.50;99.90
30069;DHT22;16894;49.456;10.644;2023-03-19T07:19:55;8.50;99.90
30069;DHT22;16894;49.456;10.644;2023-03-19T07:22:21;8.40;99.90
30069;DHT22;16894;49.456;10.644;2023-03-19T07:24:47;8.50;99.90
30069;DHT22;16894;49.456;10.644;2023-03-19T07:27:12;8.50;99.90
30069;DHT22;16894;49.456;10.644;2023-03-19T07:29:38;8.50;99.90
30069;DHT22;16894;49.456;10.644;2023-03-19T07:32:04;8.60;99.90
30069;DHT22;16894;49.456;10.644;2023-03-19T07:34:30;8.60;99.90
30069;DHT22;16894;49.456;10.644;2023-03-19T07:36:56;8.60;99.90
30069;DHT22;16894;49.456;10.644;2023-03-19T07:39:21;8.60;99.90
30069;DHT22;16894;49.456;10.644;2023-03-19T07:41:48;8.60;99.90
30069;DHT22;16894;49.456;10.644;2023-03-19T07:44:14;8.60;99.90
30069;DHT22;16894;49.456;10.644;2023-03-19T07:46:41;8.50;99.90
30069;DHT22;16894;49.456;10.644;2023-03-19T07:49:06;8.50;99.90
30069;DHT22;16894;49.456;10.644;2023-03-19T07:51:32;8.50;99.90
30069;DHT22;16894;49.456;10.644;2023-03-19T07:53:58;8.60;99.90
30069;DHT22;16894;49.456;10.644;2023-03-19T07:56:24;8.60;99.90
30069;DHT22;16894;49.456;10.644;2023-03-19T07:58:50;8.60;99.90
30069;DHT22;16894;49.456;10.644;2023-03-19T08:01:17;8.60;99.90
30069;DHT22;16894;49.456;10.644;2023-03-19T08:03:42;8.50;99.90
30069;DHT22;16894;49.456;10.644;2023-03-19T08:06:08;8.50;99.90
30069;DHT22;16894;49.456;10.644;2023-03-19T08:08:34;8.50;99.90
30069;DHT22;16894;49.456;10.644;2023-03-19T08:11:00;8.50;99.90
30069;DHT22;16894;49.456;10.644;2023-03-19T08:13:26;8.50;99.90
30069;DHT22;16894;49.456;10.644;2023-03-19T08:15:52;8.50;99.90
30069;DHT22;16894;49.456;10.644;2023-03-19T08:18:18;8.50;99.90
30069;DHT22;16894;49.456;10.644;2023-03-19T08:20:45;8.60;99.90
30069;DHT22;16894;49.456;10.644;2023-03-19T08:23:12;8.60;99.90
30069;DHT22;16894;49.456;10.644;2023-03-19T08:25:38;8.60;99.90
30069;DHT22;16894;49.456;10.644;2023-03-19T08:28:04;8.60;99.90
30069;DHT22;16894;49.456;10.644;2023-03-19T08:30:30;8.60;99.90
30069;DHT22;16894;49.456;10.644;2023-03-19T08:32:56;8.60;99.90
30069;DHT22;16894;49.456;10.644;2023-03-19T08:35:22;8.60;99.90
30069;DHT22;16894;49.456;10.644;2023-03-19T08:37:48;8.70;99.90
30069;DHT22;16894;49.456;10.644;2023-03-19T08:40:13;8.70;99.90
30069;DHT22;16894;49.456;10.644;2023-03-19T08:42:39;8.70;99.90
30069;DHT22;16894;49.456;10.644;2023-03-19T08:45:08;8.70;99.90
30069;DHT22;16894;49.456;10.644;2023-03-19T08:47:34;8.80;99.90
30069;DHT22;16894;49.456;10.644;2023-03-19T08:50:00;8.80;99.90
30069;DHT22;16894;49.456;10.644;2023-03-19T08:52:26;8.80;99.90
30069;DHT22;16894;49.456;10.644;2023-03-19T08:54:51;8.80;99.90
30069;DHT22;16894;49.456;10.644;2023-03-19T08:57:17;8.90;99.90
30069;DHT22;16894;49.456;10.644;2023-03-19T08:59:43;8.90;99.90
30069;DHT22;16894;49.456;10.644;2023-03-19T09:02:10;9.00;99.90
30069;DHT22;16894;49.456;10.644;2023-03-19T09:04:42;9.10;99.90
30069;DHT22;16894;49.456;10.644;2023-03-19T09:07:08;9.10;99.90
30069;DHT22;16894;49.456;10.644;2023-03-19T09:09:38;9.20;99.90
30069;DHT22;16894;49.456;10.644;2023-03-19T09:12:04;9.30;99.90
30069;DHT22;16894;49.456;10.644;2023-03-19T09:14:32;9.40;99.90
30069;DHT22;16894;49.456;10.644;2023-03-19T09:16:58;9.40;99.90
30069;DHT22;16894;49.456;10.644;2023-03-19T09:19:23;9.40;99.90
30069;DHT22;16894;49.456;10.644;2023-03-19T09:21:50;9.40;99.90
30069;DHT22;16894;49.456;10.644;2023-03-19T09:24:17;9.60;99.90
30069;DHT22;16894;49.456;10.644;2023-03-19T09:26:46;9.70;99.90
30069;DHT22;16894;49.456;10.644;2023-03-19T09:29:12;9.70;99.90
30069;DHT22;16894;49.456;10.644;2023-03-19T09:31:38;9.80;99.90
30069;DHT22;16894;49.456;10.644;2023-03-19T09:34:04;9.90;99.90
30069;DHT22;16894;49.456;10.644;2023-03-19T09:36:31;10.00;99.90
30069;DHT22;16894;49.456;10.644;2023-03-19T09:38:57;10.00;99.90
30069;DHT22;16894;49.456;10.644;2023-03-19T09:44:26;10.10;99.90
30069;DHT22;16894;49.456;10.644;2023-03-19T09:49:46;10.10;99.90
30069;DHT22;16894;49.456;10.644;2023-03-19T09:52:29;10.20;99.90
30069;DHT22;16894;49.456;10.644;2023-03-19T09:54:59;10.20;99.90
30069;DHT22;16894;49.456;10.644;2023-03-19T09:57:27;10.40;99.90
30069;DHT22;16894;49.456;10.644;2023-03-19T09:59:54;10.40;99.90
30069;DHT22;16894;49.456;10.644;2023-03-19T10:02:28;10.40;99.90
30069;DHT22;16894;49.456;10.644;2023-03-19T10:13:17;10.60;99.90
30069;DHT22;16894;49.456;10.644;2023-03-19T10:15:45;10.60;99.90
30069;DHT22;16894;49.456;10.644;2023-03-19T10:18:16;10.70;99.90
30069;DHT22;16894;49.456;10.644;2023-03-19T10:26:10;11.40;99.90
30069;DHT22;16894;49.456;10.644;2023-03-19T10:28:36;11.50;99.90
30069;DHT22;16894;49.456;10.644;2023-03-19T10:31:21;11.30;99.90
30069;DHT22;16894;49.456;10.644;2023-03-19T10:33:51;11.50;99.90
30069;DHT22;16894;49.456;10.644;2023-03-19T10:36:19;11.60;99.90
30069;DHT22;16894;49.456;10.644;2023-03-19T10:38:46;11.70;99.90
30069;DHT22;16894;49.456;10.644;2023-03-19T10:41:37;11.70;99.90
30069;DHT22;16894;49.456;10.644;2023-03-19T10:44:12;12.10;99.90
30069;DHT22;16894;49.456;10.644;2023-03-19T10:46:40;12.10;99.90
30069;DHT22;16894;49.456;10.644;2023-03-19T10:49:13;12.20;99.90
